Time;durP1;ratioP1;P1;durP2;ratioP2;P2;SDS_P1;SDS_P2;PMS_P1;PMS_P2;Temp;Humidity;BMP_temperature;BMP_pressure;BME280_temperature;BME280_humidity;BME280_pressure;Samples;Min_cycle;Max_cycle;Signal;HPM_P1;HPM_P2
2022/10/11 00:02:25;;;;;;;1.50;1.40;;;12.90;99.90;;;;;;4969004;28;20109;-74
2022/10/11 00:04:50;;;;;;;2.55;0.82;;;12.90;99.90;;;;;;4969754;28;20026;-74
2022/10/11 00:07:17;;;;;;;0.70;0.70;;;12.90;99.90;;;;;;4969517;28;20407;-74
2022/10/11 00:09:44;;;;;;;1.13;0.80;;;12.90;99.90;;;;;;4969567;28;20129;-74
2022/10/11 00:12:10;;;;;;;2.00;1.02;;;12.90;99.90;;;;;;4969265;28;20503;-73
2022/10/11 00:14:36;;;;;;;0.77;0.77;;;12.80;99.90;;;;;;4969342;28;20034;-74
2022/10/11 00:17:02;;;;;;;2.67;0.88;;;12.80;99.90;;;;;;4975090;28;20027;-74
2022/10/11 00:19:41;;;;;;;2.83;1.23;;;12.70;99.90;;;;;;5063024;27;1384899;-74
2022/10/11 00:22:07;;;;;;;0.57;0.55;;;12.70;99.90;;;;;;5090891;28;20040;-74
2022/10/11 00:24:32;;;;;;;4.63;0.82;;;12.70;99.90;;;;;;5087308;28;20051;-74
2022/10/11 00:26:58;;;;;;;0.75;0.73;;;12.60;99.90;;;;;;5082677;28;20078;-73
2022/10/11 00:29:24;;;;;;;2.60;0.43;;;12.50;99.90;;;;;;5082493;28;20042;-74
2022/10/11 00:31:49;;;;;;;1.40;0.80;;;12.50;99.90;;;;;;5082560;28;20029;-75
2022/10/11 00:34:16;;;;;;;1.08;0.50;;;12.40;99.90;;;;;;5084183;28;20081;-73
2022/10/11 00:36:43;;;;;;;0.95;0.70;;;12.40;99.90;;;;;;5084424;28;20119;-73
2022/10/11 00:39:08;;;;;;;1.42;0.45;;;12.30;99.90;;;;;;5085984;28;20040;-74
2022/10/11 00:41:34;;;;;;;2.10;0.73;;;12.30;99.90;;;;;;5085402;28;20031;-74
2022/10/11 00:44:19;;;;;;;0.52;0.52;;;12.20;99.90;;;;;;5084783;28;20032;-75
2022/10/11 00:47:27;;;;;;;0.55;0.50;;;12.20;99.90;;;;;;5088177;28;20108;-74
2022/10/11 00:49:58;;;;;;;4.20;0.53;;;12.10;99.90;;;;;;5068875;28;20047;-73
2022/10/11 00:52:33;;;;;;;1.17;1.10;;;12.10;99.90;;;;;;5085018;28;20118;-73
2022/10/11 00:55:11;;;;;;;1.10;0.80;;;12.00;99.90;;;;;;5086807;28;20035;-73
2022/10/11 00:57:42;;;;;;;4.75;0.90;;;12.00;99.90;;;;;;5082827;28;20029;-74
2022/10/11 01:00:10;;;;;;;1.05;0.95;;;12.00;99.90;;;;;;5083074;28;20107;-74
2022/10/11 01:02:36;;;;;;;1.30;0.43;;;13.90;99.90;;;;;;5091398;28;20077;-73
2022/10/11 01:05:04;;;;;;;0.50;0.50;;;12.00;99.90;;;;;;5084868;28;20103;-75
2022/10/11 01:07:30;;;;;;;1.60;1.10;;;12.00;99.90;;;;;;5085964;28;20025;-74
2022/10/11 01:10:01;;;;;;;1.67;0.60;;;11.90;99.90;;;;;;5084045;28;20055;-73
2022/10/11 01:12:29;;;;;;;4.10;0.77;;;11.90;99.90;;;;;;5087675;28;20032;-73
2022/10/11 01:15:04;;;;;;;0.65;0.65;;;12.00;99.90;;;;;;5087319;28;20020;-75
2022/10/11 01:17:47;;;;;;;2.08;0.90;;;12.00;99.90;;;;;;5082292;28;20663;-74
2022/10/11 01:20:38;;;;;;;1.80;1.35;;;12.00;99.90;;;;;;5089281;28;20040;-74
2022/10/11 01:23:41;;;;;;;3.20;0.43;;;12.10;99.90;;;;;;5085057;28;20024;-74
2022/10/11 01:26:41;;;;;;;0.82;0.57;;;12.10;99.90;;;;;;5084720;28;20028;-74
2022/10/11 01:29:37;;;;;;;0.43;0.43;;;12.10;99.90;;;;;;5083424;28;20033;-74
2022/10/11 01:32:16;;;;;;;1.15;0.80;;;12.10;99.90;;;;;;5079095;28;20035;-75
2022/10/11 01:34:50;;;;;;;0.70;0.70;;;12.10;99.90;;;;;;5073327;28;20013;-74
2022/10/11 01:37:35;;;;;;;0.30;0.30;;;12.10;99.90;;;;;;5078578;28;20029;-73
2022/10/11 01:40:13;;;;;;;0.82;0.70;;;12.20;99.90;;;;;;5073917;28;20035;-74
2022/10/11 01:42:41;;;;;;;2.58;1.95;;;12.20;99.90;;;;;;5070365;28;20553;-74
2022/10/11 01:45:09;;;;;;;1.35;0.65;;;12.20;99.90;;;;;;5068699;28;20035;-74
2022/10/11 01:47:35;;;;;;;3.65;1.20;;;12.30;99.90;;;;;;5069123;28;20473;-74
2022/10/11 01:50:01;;;;;;;0.50;0.50;;;12.30;99.90;;;;;;5069035;28;20021;-73
2022/10/11 01:52:32;;;;;;;2.17;0.77;;;12.30;99.90;;;;;;5070929;28;20106;-73
2022/10/11 01:55:01;;;;;;;0.80;0.43;;;12.40;99.90;;;;;;5070391;28;20377;-73
2022/10/11 01:57:36;;;;;;;1.45;1.25;;;12.40;99.90;;;;;;5071142;28;20492;-73
2022/10/11 02:00:23;;;;;;;0.30;0.30;;;12.40;99.90;;;;;;5071540;28;20036;-75
2022/10/11 02:03:10;;;;;;;37.70;1.60;;;12.30;99.90;;;;;;5071699;28;20025;-73
2022/10/11 02:05:56;;;;;;;4.50;2.92;;;12.30;99.90;;;;;;5071584;28;20032;-74
2022/10/11 02:08:36;;;;;;;3.35;1.65;;;12.30;99.90;;;;;;5071866;28;20020;-74
2022/10/11 02:11:10;;;;;;;;;;;12.30;99.90;;;;;;5072613;28;20377;-74
2022/10/11 02:13:42;;;;;;;0.45;0.45;;;12.30;99.90;;;;;;5071953;28;19914;-75
2022/10/11 02:16:13;;;;;;;0.75;0.73;;;12.30;99.90;;;;;;5071756;28;20536;-74
2022/10/11 02:18:45;;;;;;;1.55;1.08;;;12.30;99.90;;;;;;5070110;28;20497;-74
2022/10/11 02:21:15;;;;;;;1.15;1.05;;;12.30;99.90;;;;;;5071733;28;20024;-73
2022/10/11 02:23:52;;;;;;;3.58;0.68;;;12.30;99.90;;;;;;5071558;28;20492;-73
2022/10/11 02:26:19;;;;;;;2.63;1.88;;;12.30;99.90;;;;;;5071598;28;20553;-73
2022/10/11 02:28:46;;;;;;;0.82;0.82;;;12.30;99.90;;;;;;5071583;28;20028;-73
2022/10/11 02:31:16;;;;;;;2.35;0.75;;;12.30;99.90;;;;;;5071358;28;20035;-73
2022/10/11 02:33:49;;;;;;;0.73;0.60;;;12.40;99.90;;;;;;5070182;28;20029;-73
2022/10/11 02:36:31;;;;;;;4.80;0.63;;;12.40;99.90;;;;;;5073721;28;20088;-73
2022/10/11 02:39:10;;;;;;;0.68;0.68;;;12.40;99.90;;;;;;5070632;28;20032;-74
2022/10/11 02:41:39;;;;;;;2.33;1.02;;;12.40;99.90;;;;;;5070547;28;20052;-73
2022/10/11 02:44:19;;;;;;;1.08;0.63;;;12.40;99.90;;;;;;5071044;28;20020;-73
2022/10/11 02:46:47;;;;;;;1.40;1.10;;;12.40;99.90;;;;;;5071591;28;20020;-73
2022/10/11 02:49:14;;;;;;;4.63;1.10;;;12.30;99.90;;;;;;5071010;28;20484;-73
2022/10/11 02:51:39;;;;;;;0.80;0.68;;;12.40;99.90;;;;;;5071315;28;20107;-74
2022/10/11 02:54:05;;;;;;;1.00;0.75;;;12.30;99.90;;;;;;5071213;28;20603;-73
2022/10/11 02:56:31;;;;;;;2.50;0.68;;;12.40;99.90;;;;;;5070945;28;20028;-74
2022/10/11 02:58:57;;;;;;;0.35;0.35;;;12.40;99.90;;;;;;5070964;28;20025;-74
2022/10/11 03:01:22;;;;;;;1.77;1.10;;;12.40;99.90;;;;;;5070747;28;20025;-73
2022/10/11 03:03:48;;;;;;;0.95;0.55;;;12.30;99.90;;;;;;5071101;28;20477;-73
2022/10/11 03:06:14;;;;;;;0.90;0.70;;;12.30;99.90;;;;;;5071166;28;20083;-73
2022/10/11 03:08:39;;;;;;;1.67;0.75;;;12.30;99.90;;;;;;5070745;28;20043;-73
2022/10/11 03:11:05;;;;;;;1.08;0.75;;;12.30;99.90;;;;;;5070865;28;20106;-73
2022/10/11 03:13:31;;;;;;;1.02;0.90;;;12.40;99.90;;;;;;5070667;28;20078;-73
2022/10/11 03:15:59;;;;;;;3.55;2.30;;;12.40;99.90;;;;;;5070249;28;20074;-73
2022/10/11 03:18:42;;;;;;;7.05;1.48;;;12.40;99.90;;;;;;5070228;28;20122;-73
2022/10/11 03:21:08;;;;;;;0.47;0.47;;;12.40;99.90;;;;;;5070465;28;20052;-73
2022/10/11 03:23:34;;;;;;;2.00;1.33;;;14.80;99.90;;;;;;5071131;28;20055;-74
2022/10/11 03:26:00;;;;;;;1.45;1.23;;;12.40;99.90;;;;;;5070318;28;20017;-73
2022/10/11 03:28:26;;;;;;;1.38;1.15;;;12.30;99.90;;;;;;5070150;28;20025;-74
2022/10/11 03:30:52;;;;;;;1.13;0.98;;;12.30;99.90;;;;;;5070000;28;20013;-76
2022/10/11 03:33:17;;;;;;;12.13;1.23;;;12.30;99.90;;;;;;5068476;28;20032;-73
2022/10/11 03:35:45;;;;;;;1.70;1.00;;;12.40;99.90;;;;;;5068415;28;20017;-72
2022/10/11 03:38:17;;;;;;;5.57;1.33;;;12.30;99.90;;;;;;5068330;28;20101;-73
2022/10/11 03:40:43;;;;;;;2.08;1.80;;;12.30;99.90;;;;;;5068560;28;20380;-73
2022/10/11 03:43:09;;;;;;;1.92;0.95;;;12.20;99.90;;;;;;5068283;28;20027;-73
2022/10/11 03:45:35;;;;;;;2.22;1.10;;;12.20;99.90;;;;;;5068842;28;20032;-73
2022/10/11 03:48:01;;;;;;;1.45;0.95;;;12.10;99.90;;;;;;5069988;28;20021;-73
2022/10/11 03:50:27;;;;;;;4.50;1.00;;;12.10;99.90;;;;;;5070165;28;20028;-73
2022/10/11 03:52:53;;;;;;;6.22;1.25;;;12.00;99.90;;;;;;5069572;28;20420;-74
2022/10/11 03:55:18;;;;;;;1.50;1.10;;;12.00;99.90;;;;;;5070049;28;20016;-73
2022/10/11 03:57:44;;;;;;;5.40;1.17;;;12.00;99.90;;;;;;5068711;28;20124;-73
2022/10/11 04:00:10;;;;;;;1.45;1.35;;;11.90;99.90;;;;;;5070222;28;20527;-73
2022/10/11 04:02:36;;;;;;;1.85;0.98;;;11.90;99.90;;;;;;5069898;28;20553;-73
2022/10/11 04:05:02;;;;;;;1.67;1.23;;;11.80;99.90;;;;;;5069961;28;20028;-72
2022/10/11 04:07:27;;;;;;;1.58;1.05;;;11.70;99.90;;;;;;5069920;28;20032;-73
2022/10/11 04:09:53;;;;;;;1.58;1.48;;;11.60;99.90;;;;;;5069736;28;20358;-73
2022/10/11 04:12:19;;;;;;;1.05;1.05;;;11.60;99.90;;;;;;5069886;28;20028;-73
2022/10/11 04:14:45;;;;;;;1.40;0.68;;;11.50;99.90;;;;;;5069623;28;20021;-73
2022/10/11 04:17:10;;;;;;;2.42;2.17;;;11.50;99.90;;;;;;5068636;28;20025;-73
2022/10/11 04:19:36;;;;;;;1.17;1.17;;;11.40;99.90;;;;;;5069722;28;20045;-73
2022/10/11 04:22:03;;;;;;;1.48;1.38;;;11.40;99.90;;;;;;5069963;28;20027;-73
2022/10/11 04:24:29;;;;;;;1.40;1.30;;;11.40;99.90;;;;;;5069710;28;20074;-73
2022/10/11 04:26:55;;;;;;;0.77;0.77;;;11.30;99.90;;;;;;5069884;28;20048;-74
2022/10/11 04:29:21;;;;;;;5.32;1.23;;;11.20;99.90;;;;;;5069492;28;20025;-73
2022/10/11 04:31:46;;;;;;;1.45;1.23;;;11.10;99.90;;;;;;5069922;28;20024;-73
2022/10/11 04:34:12;;;;;;;2.17;1.00;;;11.00;99.90;;;;;;5069807;28;20078;-73
2022/10/11 04:36:38;;;;;;;1.38;1.23;;;11.00;99.90;;;;;;5069800;28;20446;-73
2022/10/11 04:39:05;;;;;;;1.73;0.50;;;11.00;99.90;;;;;;5069713;28;20067;-73
2022/10/11 04:41:31;;;;;;;1.50;1.05;;;10.90;99.90;;;;;;5069292;28;20025;-73
2022/10/11 04:43:57;;;;;;;2.47;1.33;;;10.80;99.90;;;;;;5069253;28;20021;-73
2022/10/11 04:46:23;;;;;;;1.35;1.20;;;10.80;99.90;;;;;;5069682;28;20054;-73
2022/10/11 04:48:49;;;;;;;5.45;1.25;;;10.80;99.90;;;;;;5069525;28;20074;-73
2022/10/11 04:51:15;;;;;;;1.38;0.95;;;10.70;99.90;;;;;;5069393;28;20566;-72
2022/10/11 04:53:41;;;;;;;1.35;0.95;;;10.80;99.90;;;;;;5069586;28;20028;-72
2022/10/11 04:56:13;;;;;;;3.70;1.67;;;10.80;99.90;;;;;;5069822;28;20020;-73
2022/10/11 04:58:40;;;;;;;3.58;0.90;;;;;;;;;;5068197;28;20546;-75
2022/10/11 05:01:06;;;;;;;2.10;1.58;;;10.70;99.90;;;;;;5069204;28;20044;-73
2022/10/11 05:03:32;;;;;;;8.70;2.05;;;10.70;99.90;;;;;;5068076;28;20028;-73
2022/10/11 05:05:57;;;;;;;1.90;1.63;;;10.60;99.90;;;;;;5070822;28;20350;-73
2022/10/11 05:08:23;;;;;;;5.82;2.47;;;10.70;99.90;;;;;;5073269;28;20491;-73
2022/10/11 05:11:00;;;;;;;2.40;1.45;;;;;;;;;;5073089;28;20230;-72
2022/10/11 05:13:27;;;;;;;2.40;2.08;;;10.90;99.90;;;;;;5072966;28;20063;-75
2022/10/11 05:15:53;;;;;;;4.53;1.27;;;10.90;99.90;;;;;;5072721;28;20027;-72
2022/10/11 05:18:19;;;;;;;2.38;1.23;;;11.00;99.90;;;;;;5071321;28;20056;-73
2022/10/11 05:20:45;;;;;;;1.38;1.27;;;11.00;99.90;;;;;;5073016;28;20021;-74
2022/10/11 05:23:10;;;;;;;1.40;1.30;;;10.90;99.90;;;;;;5072862;28;20024;-75
2022/10/11 05:25:36;;;;;;;2.35;2.15;;;11.00;99.90;;;;;;5073163;28;20035;-73
2022/10/11 05:28:02;;;;;;;11.15;3.80;;;11.00;99.90;;;;;;5073268;28;20274;-73
2022/10/11 05:30:28;;;;;;;1.90;1.42;;;11.00;99.90;;;;;;5072352;28;20078;-73
2022/10/11 05:32:54;;;;;;;1.67;1.00;;;11.00;99.90;;;;;;5072745;28;20021;-75
2022/10/11 05:35:19;;;;;;;1.60;1.25;;;11.00;99.90;;;;;;5072365;28;20021;-73
2022/10/11 05:37:45;;;;;;;2.88;1.58;;;10.90;99.90;;;;;;5072621;28;20025;-73
2022/10/11 05:40:11;;;;;;;1.80;1.70;;;10.90;99.90;;;;;;5059826;28;20128;-74
2022/10/11 05:42:37;;;;;;;10.68;1.85;;;10.80;99.90;;;;;;5054841;28;20025;-73
2022/10/11 05:45:05;;;;;;;3.40;1.52;;;10.80;99.90;;;;;;5054294;28;20044;-73
2022/10/11 05:47:30;;;;;;;6.22;2.65;;;10.80;99.90;;;;;;5052018;28;20088;-72
2022/10/11 05:49:56;;;;;;;3.25;1.20;;;10.70;99.90;;;;;;5058374;28;20052;-74
2022/10/11 05:52:22;;;;;;;1.52;1.42;;;10.70;99.90;;;;;;5054899;28;20029;-74
2022/10/11 05:54:48;;;;;;;1.63;1.33;;;10.60;99.90;;;;;;5058432;28;20025;-73
2022/10/11 05:57:14;;;;;;;12.75;1.80;;;10.60;99.90;;;;;;5050809;28;20033;-74
2022/10/11 05:59:39;;;;;;;6.15;1.50;;;10.70;99.90;;;;;;5052085;28;20055;-73
2022/10/11 06:02:06;;;;;;;4.32;1.15;;;10.60;99.90;;;;;;5052360;28;20495;-73
2022/10/11 06:04:36;;;;;;;4.13;1.98;;;10.50;99.90;;;;;;5050859;28;20489;-74
2022/10/11 06:07:02;;;;;;;;;;;10.60;99.90;;;;;;5052781;28;20017;-73
2022/10/11 06:09:28;;;;;;;4.97;1.80;;;;;;;;;;5052072;28;20357;-73
2022/10/11 06:11:57;;;;;;;6.68;2.47;;;10.50;99.90;;;;;;5052634;28;20096;-73
2022/10/11 06:14:23;;;;;;;2.15;1.85;;;10.50;99.90;;;;;;5053648;28;20025;-73
2022/10/11 06:16:49;;;;;;;6.22;1.95;;;10.60;99.90;;;;;;5053660;28;20540;-73
2022/10/11 06:19:14;;;;;;;1.65;1.55;;;12.80;99.90;;;;;;5052975;28;20127;-74
2022/10/11 06:21:40;;;;;;;2.85;2.13;;;10.60;99.90;;;;;;5051876;28;20035;-73
2022/10/11 06:24:08;;;;;;;2.13;1.20;;;10.60;99.90;;;;;;5052958;28;20076;-73
2022/10/11 06:26:34;;;;;;;3.50;1.45;;;10.70;99.90;;;;;;5051837;28;20017;-73
2022/10/11 06:29:00;;;;;;;2.08;1.30;;;10.70;99.90;;;;;;5051546;28;20102;-74
2022/10/11 06:31:26;;;;;;;3.30;1.45;;;10.70;99.90;;;;;;5050758;28;20111;-73
2022/10/11 06:33:51;;;;;;;1.92;1.73;;;10.60;99.90;;;;;;5052621;28;20109;-73
2022/10/11 06:36:17;;;;;;;5.97;2.38;;;10.70;99.90;;;;;;5051437;28;20063;-73
2022/10/11 06:38:43;;;;;;;3.63;1.65;;;10.70;99.90;;;;;;5051524;28;20041;-73
2022/10/11 06:41:17;;;;;;;1.85;1.67;;;10.80;99.90;;;;;;5051475;28;20024;-73
2022/10/11 06:43:43;;;;;;;2.30;2.10;;;10.90;99.90;;;;;;5051426;28;20036;-73
2022/10/11 06:46:09;;;;;;;4.93;2.33;;;11.00;99.90;;;;;;5051595;28;20031;-75
2022/10/11 06:48:42;;;;;;;1.80;1.45;;;11.10;99.90;;;;;;5050408;28;20509;-72
2022/10/11 06:51:09;;;;;;;4.32;2.03;;;11.20;99.90;;;;;;5051349;28;20482;-73
2022/10/11 06:53:35;;;;;;;1.83;1.38;;;11.20;99.90;;;;;;5051101;28;20112;-73
2022/10/11 06:56:05;;;;;;;2.65;1.95;;;11.20;99.90;;;;;;5050990;28;20091;-73
2022/10/11 06:58:50;;;;;;;5.40;2.10;;;11.20;99.90;;;;;;5051116;28;20097;-73
2022/10/11 07:01:18;;;;;;;2.83;2.08;;;11.20;99.90;;;;;;5049739;28;20059;-73
2022/10/11 07:03:44;;;;;;;1.47;1.37;;;11.30;99.90;;;;;;5049813;28;20032;-73
2022/10/11 07:06:13;;;;;;;1.85;1.65;;;11.40;99.90;;;;;;5051042;28;20016;-72
2022/10/11 07:08:39;;;;;;;3.53;1.50;;;11.50;99.90;;;;;;5050996;28;20029;-73
2022/10/11 07:11:07;;;;;;;6.20;2.53;;;11.60;99.90;;;;;;5050730;28;20020;-73
2022/10/11 07:13:34;;;;;;;2.22;2.03;;;11.70;99.90;;;;;;5050738;28;20035;-73
2022/10/11 07:16:01;;;;;;;2.80;1.73;;;11.80;99.90;;;;;;5050663;28;20036;-73
2022/10/11 07:18:27;;;;;;;2.72;2.50;;;11.90;99.90;;;;;;5050564;28;20509;-73
2022/10/11 07:20:53;;;;;;;10.10;2.00;;;11.90;99.90;;;;;;5050951;28;20056;-73
2022/10/11 07:23:19;;;;;;;11.32;2.30;;;12.10;99.90;;;;;;5065611;28;20103;-73
2022/10/11 07:25:45;;;;;;;3.45;2.25;;;12.20;99.90;;;;;;5070915;28;20473;-73
2022/10/11 07:28:12;;;;;;;2.60;1.60;;;12.30;99.90;;;;;;5069917;28;20026;-73
2022/10/11 07:30:39;;;;;;;6.65;1.58;;;12.40;99.90;;;;;;5070039;28;20024;-73
2022/10/11 07:33:05;;;;;;;9.85;2.08;;;12.60;99.90;;;;;;5070453;28;20032;-73
2022/10/11 07:35:33;;;;;;;2.42;2.22;;;12.80;99.90;;;;;;5070691;28;20030;-73
2022/10/11 07:37:59;;;;;;;6.72;3.67;;;12.90;99.90;;;;;;5071350;28;20040;-73
2022/10/11 07:40:25;;;;;;;5.03;2.55;;;;;;;;;;5071322;28;20020;-73
2022/10/11 07:42:51;;;;;;;1.85;1.75;;;13.00;99.90;;;;;;5070154;28;20051;-73
2022/10/11 07:45:16;;;;;;;2.13;1.90;;;13.10;99.90;;;;;;5069869;28;20472;-73
2022/10/11 07:47:45;;;;;;;8.57;2.95;;;13.10;99.90;;;;;;5070924;28;20385;-75
2022/10/11 07:50:11;;;;;;;5.32;2.95;;;13.20;99.90;;;;;;5070959;28;20113;-73
2022/10/11 07:52:38;;;;;;;2.50;1.80;;;13.20;99.90;;;;;;5071053;28;20021;-74
2022/10/11 07:55:04;;;;;;;3.47;2.63;;;13.50;99.90;;;;;;5070799;28;20115;-74
2022/10/11 07:57:30;;;;;;;11.93;2.78;;;13.50;99.90;;;;;;5070316;28;20485;-74
2022/10/11 07:59:56;;;;;;;3.95;2.75;;;13.70;99.90;;;;;;5069876;28;20025;-76
2022/10/11 08:02:21;;;;;;;4.57;2.00;;;13.90;99.90;;;;;;5070054;28;20016;-74
2022/10/11 08:04:47;;;;;;;4.22;2.58;;;14.20;99.90;;;;;;5070169;28;20512;-73
2022/10/11 08:07:13;;;;;;;4.70;2.03;;;14.50;99.90;;;;;;5068308;28;20020;-73
2022/10/11 08:09:38;;;;;;;4.28;2.58;;;14.80;99.90;;;;;;5069997;28;20063;-73
2022/10/11 08:12:04;;;;;;;3.50;1.90;;;14.90;99.90;;;;;;5069975;28;20055;-74
2022/10/11 08:14:30;;;;;;;3.28;2.13;;;15.20;99.90;;;;;;5069742;28;20025;-73
2022/10/11 08:16:55;;;;;;;2.22;2.03;;;15.40;99.90;;;;;;5068678;28;20039;-73
2022/10/11 08:19:21;;;;;;;7.85;2.28;;;15.40;99.90;;;;;;5069703;28;20540;-73
2022/10/11 08:21:47;;;;;;;3.85;3.47;;;15.00;99.90;;;;;;5068420;28;20210;-72
2022/10/11 08:24:13;;;;;;;5.90;2.20;;;14.90;99.90;;;;;;5069648;28;20032;-72
2022/10/11 08:26:39;;;;;;;3.55;2.47;;;14.80;99.90;;;;;;5069443;28;20020;-72
2022/10/11 08:29:05;;;;;;;3.97;3.60;;;14.70;99.90;;;;;;5069356;28;20255;-72
2022/10/11 08:31:33;;;;;;;6.05;3.50;;;14.80;99.90;;;;;;5069873;28;20278;-74
2022/10/11 08:33:59;;;;;;;4.45;2.35;;;14.90;99.90;;;;;;5068330;28;20020;-74
2022/10/11 08:36:25;;;;;;;8.60;2.85;;;15.00;99.90;;;;;;5068512;28;20025;-73
2022/10/11 08:38:51;;;;;;;4.43;3.03;;;15.20;99.90;;;;;;5066612;28;20029;-73
2022/10/11 08:41:25;;;;;;;4.28;2.55;;;15.30;99.90;;;;;;5071434;28;20025;-72
2022/10/11 08:44:19;;;;;;;9.13;2.45;;;15.20;99.90;;;;;;5071527;28;20138;-72
2022/10/11 08:46:51;;;;;;;5.15;3.13;;;15.20;99.90;;;;;;5071345;28;20036;-72
2022/10/11 08:49:26;;;;;;;5.60;2.28;;;15.30;99.90;;;;;;5071752;28;20032;-72
2022/10/11 08:51:59;;;;;;;4.82;2.78;;;15.20;99.90;;;;;;5071535;28;20105;-74
2022/10/11 08:54:55;;;;;;;13.73;2.72;;;15.20;99.90;;;;;;5071616;28;20051;-73
2022/10/11 08:57:25;;;;;;;2.90;1.92;;;15.20;99.90;;;;;;5071875;28;20025;-73
2022/10/11 08:59:55;;;;;;;11.82;4.57;;;15.00;99.90;;;;;;5073001;28;20040;-73
2022/10/11 09:02:33;;;;;;;3.13;2.35;;;15.00;99.90;;;;;;5071530;28;20028;-73
2022/10/11 09:05:00;;;;;;;4.20;2.55;;;15.00;99.90;;;;;;5053496;28;20033;-74
2022/10/11 09:07:44;;;;;;;4.10;2.13;;;15.00;99.90;;;;;;5071645;28;20020;-74
2022/10/11 09:10:36;;;;;;;10.07;3.17;;;15.20;99.90;;;;;;5070540;28;20071;-74
2022/10/11 09:13:08;;;;;;;7.07;2.95;;;15.40;99.90;;;;;;5039137;28;20033;-73
2022/10/11 09:15:34;;;;;;;7.82;3.40;;;;;;;;;;5069833;28;20111;-73
2022/10/11 09:18:34;;;;;;;3.75;2.83;;;15.10;99.90;;;;;;5069626;28;20044;-73
2022/10/11 09:21:15;;;;;;;4.70;3.40;;;14.90;99.90;;;;;;5069744;28;20030;-74
2022/10/11 09:24:20;;;;;;;10.95;4.35;;;14.90;99.90;;;;;;5049856;28;20028;-73
2022/10/11 09:27:01;;;;;;;6.32;3.13;;;14.50;99.90;;;;;;5038633;28;20037;-73
2022/10/11 09:29:54;;;;;;;5.57;2.53;;;14.50;99.90;;;;;;5048031;28;20052;-74
2022/10/11 09:32:21;;;;;;;4.45;3.92;;;14.50;99.90;;;;;;5050254;28;20408;-75
2022/10/11 09:35:20;;;;;;;8.77;4.35;;;14.60;99.90;;;;;;5049076;28;20382;-74
2022/10/11 09:38:04;;;;;;;8.98;4.10;;;14.60;99.90;;;;;;5027058;28;20059;-74
2022/10/11 09:40:53;;;;;;;4.07;3.35;;;14.60;99.90;;;;;;5069666;28;20050;-74
2022/10/11 09:43:19;;;;;;;4.47;3.17;;;14.80;99.90;;;;;;5069404;28;20091;-74
2022/10/11 09:45:45;;;;;;;4.78;3.55;;;14.90;99.90;;;;;;5069376;28;20480;-74
2022/10/11 09:48:24;;;;;;;8.57;4.97;;;14.80;99.90;;;;;;5067824;28;20159;-75
2022/10/11 09:50:52;;;;;;;7.70;4.28;;;14.80;99.90;;;;;;5069375;28;20656;-73
2022/10/11 09:53:18;;;;;;;5.75;4.25;;;15.00;99.90;;;;;;5069689;28;20507;-73
2022/10/11 09:55:53;;;;;;;6.22;2.67;;;15.00;99.90;;;;;;5069092;28;20025;-74
2022/10/11 09:58:37;;;;;;;6.60;2.90;;;15.20;99.90;;;;;;5068800;28;20155;-74
2022/10/11 10:01:09;;;;;;;6.60;3.70;;;15.30;99.90;;;;;;5068838;28;20039;-74
2022/10/11 10:03:37;;;;;;;5.22;2.40;;;15.40;99.90;;;;;;5067742;28;20439;-74
2022/10/11 10:06:27;;;;;;;13.50;5.17;;;15.40;99.90;;;;;;5069448;28;20021;-75
2022/10/11 10:08:54;;;;;;;3.78;2.53;;;15.60;99.90;;;;;;5067562;28;20028;-75
2022/10/11 10:11:20;;;;;;;9.10;4.15;;;15.60;99.90;;;;;;5068665;28;20269;-74
2022/10/11 10:13:52;;;;;;;8.00;3.67;;;15.60;99.90;;;;;;5068505;28;20377;-73
2022/10/11 10:16:29;;;;;;;6.78;4.28;;;15.70;99.90;;;;;;5067463;28;20039;-74
2022/10/11 10:19:02;;;;;;;5.40;3.42;;;15.70;99.90;;;;;;5066090;28;20044;-73
2022/10/11 10:21:42;;;;;;;4.10;3.45;;;16.30;99.90;;;;;;5065589;28;20024;-74
2022/10/11 10:24:24;;;;;;;3.88;2.92;;;15.80;99.90;;;;;;5065826;28;20486;-73
2022/10/11 10:27:09;;;;;;;9.05;4.10;;;15.80;99.90;;;;;;5065531;28;20024;-73
2022/10/11 10:29:35;;;;;;;19.17;5.10;;;15.90;99.90;;;;;;5064716;28;20047;-73
2022/10/11 10:32:10;;;;;;;5.10;3.65;;;16.00;99.90;;;;;;5066527;28;20397;-73
2022/10/11 10:34:39;;;;;;;4.43;3.05;;;16.00;99.90;;;;;;5067968;28;20031;-73
2022/10/11 10:37:21;;;;;;;8.85;3.78;;;16.10;99.90;;;;;;5068229;28;20110;-72
2022/10/11 10:40:01;;;;;;;9.02;4.40;;;16.10;99.90;;;;;;5068381;28;20142;-73
2022/10/11 10:42:27;;;;;;;5.22;3.53;;;16.00;99.90;;;;;;5068252;28;20024;-73
2022/10/11 10:44:55;;;;;;;4.13;2.85;;;16.10;99.90;;;;;;5066836;28;20078;-73
2022/10/11 10:47:37;;;;;;;7.78;3.05;;;16.40;99.90;;;;;;5067490;28;20502;-76
2022/10/11 10:50:23;;;;;;;5.70;2.83;;;17.70;99.90;;;;;;5068090;28;20028;-74
2022/10/11 10:52:54;;;;;;;7.20;3.75;;;16.60;99.90;;;;;;5070014;28;20076;-74
2022/10/11 10:55:53;;;;;;;6.85;4.20;;;16.40;99.90;;;;;;5067615;28;20036;-73
2022/10/11 10:58:47;;;;;;;5.47;3.42;;;16.20;99.90;;;;;;5065745;28;20385;-74
2022/10/11 11:01:18;;;;;;;17.25;5.32;;;15.60;99.90;;;;;;5068215;28;20033;-74
2022/10/11 11:03:52;;;;;;;14.02;3.97;;;15.30;99.90;;;;;;5067284;28;20489;-73
2022/10/11 11:06:29;;;;;;;11.05;4.13;;;15.20;99.90;;;;;;5068906;28;20028;-75
2022/10/11 11:09:39;;;;;;;10.23;4.03;;;15.20;99.90;;;;;;5067436;28;20025;-73
2022/10/11 11:12:23;;;;;;;6.82;3.42;;;15.20;99.90;;;;;;5067443;28;20021;-73
2022/10/11 11:15:27;;;;;;;9.77;4.03;;;15.30;99.90;;;;;;5067347;28;20052;-73
2022/10/11 11:18:02;;;;;;;8.65;4.30;;;15.40;99.90;;;;;;5054647;28;20048;-74
2022/10/11 11:20:34;;;;;;;8.20;4.22;;;15.70;99.90;;;;;;5067948;28;20028;-74
2022/10/11 11:23:18;;;;;;;9.80;4.57;;;16.10;99.90;;;;;;5067682;28;20552;-76
2022/10/11 11:26:07;;;;;;;6.68;4.72;;;16.00;99.90;;;;;;5068077;28;20129;-75
2022/10/11 11:28:57;;;;;;;13.35;4.45;;;15.70;99.90;;;;;;5067061;28;20036;-76
2022/10/11 11:31:53;;;;;;;10.95;5.80;;;15.60;99.90;;;;;;5068126;28;20301;-75
2022/10/11 11:34:26;;;;;;;19.95;6.85;;;15.50;99.90;;;;;;5067203;28;20444;-75
2022/10/11 11:36:59;;;;;;;12.25;5.13;;;15.20;99.90;;;;;;5067610;28;20028;-74
2022/10/11 11:39:31;;;;;;;7.10;4.65;;;15.30;99.90;;;;;;5066841;28;20040;-74
2022/10/11 11:42:35;;;;;;;9.63;5.88;;;15.30;99.90;;;;;;5065419;28;20068;-74
2022/10/11 11:45:21;;;;;;;12.38;6.25;;;15.30;99.90;;;;;;4984368;28;20547;-74
2022/10/11 11:47:55;;;;;;;8.65;4.38;;;13.70;99.90;;;;;;5060560;28;20150;-73
2022/10/11 11:50:25;;;;;;;8.70;3.92;;;15.60;99.90;;;;;;5066790;28;20107;-73
2022/10/11 11:52:58;;;;;;;16.30;5.50;;;15.50;99.90;;;;;;5068733;28;20492;-74
2022/10/11 11:55:31;;;;;;;15.07;6.88;;;15.40;99.90;;;;;;5067052;28;20033;-74
2022/10/11 11:58:11;;;;;;;10.90;5.35;;;15.30;99.90;;;;;;5067531;28;20148;-75
2022/10/11 12:01:15;;;;;;;12.57;4.85;;;15.50;99.90;;;;;;5066578;28;20577;-74
2022/10/11 12:03:47;;;;;;;13.18;4.93;;;15.60;99.90;;;;;;5065194;28;20272;-74
2022/10/11 12:06:13;;;;;;;11.20;5.07;;;15.70;99.90;;;;;;5064170;28;20036;-74
2022/10/11 12:08:44;;;;;;;11.35;5.65;;;15.90;99.90;;;;;;5065068;28;20110;-72
2022/10/11 12:11:24;;;;;;;11.35;5.22;;;15.90;99.90;;;;;;5066238;28;20041;-74
2022/10/11 12:13:51;;;;;;;16.13;4.82;;;16.10;99.90;;;;;;5065049;28;20024;-74
2022/10/11 12:16:18;;;;;;;6.63;4.50;;;16.30;99.90;;;;;;5066437;28;20048;-74
2022/10/11 12:18:56;;;;;;;7.93;4.72;;;16.30;99.90;;;;;;5066426;28;20114;-74
2022/10/11 12:21:28;;;;;;;9.85;4.68;;;16.50;99.90;;;;;;5066299;28;20025;-74
2022/10/11 12:23:56;;;;;;;12.48;6.05;;;16.60;99.90;;;;;;5066811;28;20129;-74
2022/10/11 12:26:28;;;;;;;11.25;5.72;;;16.70;99.90;;;;;;5067302;28;20027;-74
2022/10/11 12:29:18;;;;;;;9.15;5.13;;;16.90;99.90;;;;;;5066325;28;20028;-74
2022/10/11 12:31:46;;;;;;;13.60;4.38;;;17.10;99.90;;;;;;5065873;28;20107;-74
2022/10/11 12:34:38;;;;;;;5.25;3.90;;;17.00;99.90;;;;;;5064998;28;20524;-74
2022/10/11 12:37:30;;;;;;;6.15;4.22;;;17.00;99.90;;;;;;5066112;28;20054;-74
2022/10/11 12:39:58;;;;;;;8.63;5.10;;;16.70;99.90;;;;;;5064489;28;20112;-74
2022/10/11 12:42:34;;;;;;;8.73;4.35;;;16.50;99.90;;;;;;5065832;28;20511;-74
2022/10/11 12:45:12;;;;;;;6.85;4.70;;;16.50;99.90;;;;;;5065893;28;20723;-75
2022/10/11 12:47:50;;;;;;;7.75;4.28;;;16.40;99.90;;;;;;5065025;28;20036;-74
2022/10/11 12:50:29;;;;;;;12.95;5.53;;;16.50;99.90;;;;;;5066284;28;20029;-74
2022/10/11 12:53:18;;;;;;;7.18;4.43;;;16.50;99.90;;;;;;5064835;28;20029;-73
2022/10/11 12:55:58;;;;;;;6.25;3.78;;;16.60;99.90;;;;;;5066482;28;20075;-75
2022/10/11 12:58:29;;;;;;;5.30;3.45;;;16.60;99.90;;;;;;5065351;28;20036;-74
2022/10/11 13:00:55;;;;;;;5.78;4.32;;;;;;;;;;5066541;28;20545;-75
2022/10/11 13:03:34;;;;;;;7.70;5.00;;;16.70;99.90;;;;;;5065530;28;20024;-74
2022/10/11 13:06:26;;;;;;;8.48;4.15;;;16.60;99.90;;;;;;5066018;28;20024;-75
2022/10/11 13:08:58;;;;;;;11.32;5.95;;;16.50;99.90;;;;;;5056580;28;20036;-75
2022/10/11 13:11:32;;;;;;;14.10;5.25;;;16.50;99.90;;;;;;5067116;28;20437;-75
2022/10/11 13:14:05;;;;;;;10.07;4.45;;;16.50;99.90;;;;;;5065159;28;20835;-76